Terminal Aerodrome Forecast
Issued by NWS

Home | Current Version | Previous Version | Text Only | Print | Product List | Glossary On
Versions: 1 2 3 4 5 6 7 8 9 10 11 12 13 14 15 16
000
FTUS45 KBOI 262331
TAFBKE
TAF
KBKE 262331Z 2700/2724 11012G21KT P6SM VCSH SCT025 OVC035
     FM270200 13011KT P6SM -SHRA OVC035
     FM271000 30010KT P6SM -SHRA BKN025 OVC040
     FM272000 32013G19KT P6SM BKN100=

USA.gov is the U.S. government's official web portal to all federal, state and local government web resources and services.